Terminal Aerodrome Forecast
Issued by NWS Charleston, WV

Current Version | Previous Version | Text Only | Print | Product List | Glossary Off
Versions: 1 2 3 4 5 6 7 8 9 10 11 12 13 14 15 16 17 18 19 20 21 22 23 24 25

000
FTUS41 KRLX 280500
TAFEKN
TAF
KEKN 280531Z 2806/2906 32006KT 2SM BR OVC025
      TEMPO 2806/2808 1SM -SN BKN015
     FM280800 32005KT 3SM -SN OVC030
     FM280900 32005KT 6SM -SN BKN030
     FM281500 31005KT P6SM SCT035
     FM290400 31006KT P6SM SKC=

USA.gov is the U.S. government's official web portal to all federal, state and local government web resources and services.